createdAt,value
2018-06-12T00:00:27.941Z,5.13
2018-06-12T00:02:56.672Z,5.67
2018-06-12T00:05:26.595Z,5.10
2018-06-12T00:07:55.515Z,5.00
2018-06-12T00:10:23.953Z,5.60
2018-06-12T00:12:52.570Z,6.40
2018-06-12T00:15:23.218Z,5.47
2018-06-12T00:17:51.627Z,5.80
2018-06-12T00:20:20.080Z,5.60
2018-06-12T00:22:49.048Z,6.67
2018-06-12T00:25:17.859Z,5.50
2018-06-12T00:27:47.169Z,6.60
2018-06-12T00:30:15.584Z,6.67
2018-06-12T00:32:44.000Z,6.07
2018-06-12T00:35:12.420Z,7.00
2018-06-12T00:37:41.259Z,5.80
2018-06-12T00:40:11.288Z,5.90
2018-06-12T00:42:40.228Z,5.53
2018-06-12T00:45:08.673Z,7.10
2018-06-12T00:47:37.091Z,5.47
2018-06-12T00:50:05.537Z,5.50
2018-06-12T00:52:34.001Z,6.33
2018-06-12T00:55:02.753Z,5.27
2018-06-12T00:57:31.877Z,5.50
2018-06-12T01:00:00.312Z,5.77
2018-06-12T01:02:29.040Z,5.23
2018-06-12T01:04:58.433Z,5.53
2018-06-12T01:07:27.117Z,5.70
2018-06-12T01:09:55.548Z,5.73
2018-06-12T01:12:24.330Z,6.30
2018-06-12T01:14:53.012Z,6.43
2018-06-12T01:17:21.471Z,6.40
2018-06-12T01:19:50.678Z,6.03
2018-06-12T01:22:19.099Z,5.43
2018-06-12T01:24:47.499Z,5.53
2018-06-12T01:27:15.924Z,5.40
2018-06-12T01:29:44.332Z,6.17
2018-06-12T01:32:12.775Z,7.03
2018-06-12T01:34:41.766Z,7.27
2018-06-12T01:37:10.295Z,6.70
2018-06-12T01:39:39.103Z,7.20
2018-06-12T01:42:07.976Z,8.10
2018-06-12T01:44:36.404Z,6.00
2018-06-12T01:47:05.065Z,7.53
2018-06-12T01:49:33.501Z,6.50
2018-06-12T01:52:01.948Z,8.00
2018-06-12T01:54:30.364Z,7.33
2018-06-12T01:56:58.814Z,6.13
2018-06-12T01:59:27.671Z,6.00
2018-06-12T02:01:56.093Z,6.20
2018-06-12T02:04:24.507Z,6.27
2018-06-12T02:06:52.937Z,6.90
2018-06-12T02:09:21.375Z,5.60
2018-06-12T02:11:49.809Z,6.67
2018-06-12T02:14:18.512Z,6.30
2018-06-12T02:16:46.960Z,5.97
2018-06-12T02:19:15.389Z,6.60
2018-06-12T02:21:43.845Z,6.40
2018-06-12T02:24:12.592Z,6.80
2018-06-12T02:26:41.045Z,7.73
2018-06-12T02:29:10.956Z,6.67
2018-06-12T02:31:39.400Z,7.87
2018-06-12T02:34:09.140Z,8.30
2018-06-12T02:36:37.825Z,7.87
2018-06-12T02:39:07.966Z,7.37
2018-06-12T02:41:36.410Z,6.13
2018-06-12T02:44:05.788Z,7.57
2018-06-12T02:47:59.035Z,6.60
2018-06-12T02:50:27.738Z,8.10
2018-06-12T02:52:55.890Z,6.90
2018-06-12T02:55:24.537Z,11.20
2018-06-12T02:57:52.976Z,11.87
2018-06-12T03:00:21.388Z,9.23
2018-06-12T03:02:54.174Z,10.13
2018-06-12T03:05:23.531Z,8.50
2018-06-12T03:07:51.995Z,8.23
2018-06-12T03:10:20.656Z,8.47
2018-06-12T03:12:49.992Z,8.77
2018-06-12T03:15:18.415Z,8.30
2018-06-12T03:17:46.851Z,7.20
2018-06-12T03:20:15.632Z,6.60
2018-06-12T03:22:45.016Z,7.90
2018-06-12T03:25:13.812Z,7.13
2018-06-12T03:27:42.260Z,7.47
2018-06-12T03:30:11.069Z,7.00
2018-06-12T03:32:39.495Z,6.73
2018-06-12T03:35:07.915Z,8.70
2018-06-12T03:37:37.380Z,6.53
2018-06-12T03:40:05.791Z,7.40
2018-06-12T03:42:34.238Z,9.23
2018-06-12T03:45:02.656Z,8.03
2018-06-12T03:47:31.119Z,7.30
2018-06-12T03:50:03.863Z,8.00
2018-06-12T03:52:32.316Z,7.90
2018-06-12T03:55:00.748Z,7.80
2018-06-12T03:57:30.406Z,7.70
2018-06-12T03:59:58.837Z,7.70
2018-06-12T04:02:28.368Z,6.50
2018-06-12T04:04:57.492Z,6.23
2018-06-12T04:07:25.932Z,6.50
2018-06-12T04:09:54.380Z,7.10
2018-06-12T04:12:24.661Z,7.53
2018-06-12T04:14:53.186Z,6.90
2018-06-12T04:17:22.527Z,7.00
2018-06-12T04:19:51.216Z,6.80
2018-06-12T04:22:19.780Z,7.37
2018-06-12T04:24:48.275Z,7.43
2018-06-12T04:27:16.714Z,7.53
2018-06-12T04:29:48.876Z,7.33
2018-06-12T04:32:18.491Z,9.70
2018-06-12T04:34:47.128Z,9.70
2018-06-12T04:37:15.552Z,7.90
2018-06-12T04:39:43.986Z,7.23
2018-06-12T04:42:12.758Z,6.23
2018-06-12T04:44:42.248Z,7.67
2018-06-12T04:47:10.685Z,8.10
2018-06-12T04:49:39.111Z,6.90
2018-06-12T04:52:08.496Z,7.07
2018-06-12T04:54:37.300Z,7.40
2018-06-12T04:57:09.404Z,7.43
2018-06-12T04:59:37.921Z,7.00
2018-06-12T05:02:07.381Z,8.00
2018-06-12T05:04:35.852Z,8.17
2018-06-12T05:07:06.820Z,9.63
2018-06-12T05:09:35.604Z,8.67
2018-06-12T05:12:04.124Z,9.13
2018-06-12T05:14:33.608Z,8.80
2018-06-12T05:17:02.028Z,10.87
2018-06-12T05:19:30.495Z,9.80
2018-06-12T05:21:58.893Z,9.27
2018-06-12T05:24:27.357Z,8.53
2018-06-12T05:26:56.327Z,9.60
2018-06-12T05:29:24.756Z,9.80
2018-06-12T05:31:53.207Z,10.50
2018-06-12T05:34:22.099Z,9.40
2018-06-12T05:42:04.734Z,9.90
2018-06-12T05:44:33.170Z,12.37
2018-06-12T05:47:03.405Z,13.47
2018-06-12T05:49:32.173Z,14.17
2018-06-12T05:52:00.858Z,12.30
2018-06-12T05:55:55.299Z,15.30
2018-06-12T05:58:23.739Z,12.23
2018-06-12T06:00:54.696Z,11.63
2018-06-12T06:03:23.157Z,13.30
2018-06-12T06:05:52.245Z,14.10
2018-06-12T06:08:20.981Z,14.77
2018-06-12T06:10:50.170Z,14.90
2018-06-12T06:13:18.626Z,16.30
2018-06-12T06:15:47.899Z,15.47
2018-06-12T06:18:16.848Z,16.10
2018-06-12T06:20:46.373Z,15.40
2018-06-12T06:23:15.574Z,15.67
2018-06-12T06:25:44.076Z,14.00
2018-06-12T06:28:13.427Z,17.47
2018-06-12T06:30:42.142Z,15.57
2018-06-12T06:33:11.425Z,15.03
2018-06-12T06:35:39.966Z,15.90
2018-06-12T06:38:08.890Z,14.63
2018-06-12T06:40:38.174Z,15.70
2018-06-12T06:43:07.014Z,16.67
2018-06-12T06:45:35.838Z,15.43
2018-06-12T06:48:05.082Z,15.70
2018-06-12T06:50:33.674Z,15.17
2018-06-12T06:53:02.368Z,14.77
2018-06-12T06:55:31.209Z,19.30
2018-06-12T06:57:59.659Z,21.33
2018-06-12T07:00:32.082Z,19.37
2018-06-12T07:03:01.064Z,17.70
2018-06-12T07:05:30.197Z,16.40
2018-06-12T07:08:02.118Z,16.87
2018-06-12T07:10:31.060Z,17.07
2018-06-12T07:13:00.564Z,17.03
2018-06-12T07:15:29.364Z,15.87
2018-06-12T07:17:58.848Z,17.73
2018-06-12T07:20:39.141Z,17.53
2018-06-12T07:23:08.405Z,17.37
2018-06-12T07:25:37.109Z,15.97
2018-06-12T07:28:05.670Z,17.57
2018-06-12T07:30:35.387Z,17.30
2018-06-12T07:33:04.085Z,16.23
2018-06-12T07:35:33.070Z,18.03
2018-06-12T07:38:03.652Z,13.90
2018-06-12T07:40:33.060Z,15.00
2018-06-12T07:43:01.745Z,14.90
2018-06-12T07:45:31.401Z,12.50
2018-06-12T07:48:00.101Z,12.97
2018-06-12T07:51:32.295Z,12.40
2018-06-12T07:54:01.557Z,11.80
2018-06-12T07:56:30.077Z,12.37
2018-06-12T07:58:58.555Z,14.50
2018-06-12T08:01:27.463Z,13.53
2018-06-12T08:03:56.229Z,13.43
2018-06-12T08:06:24.711Z,13.67
2018-06-12T08:08:53.191Z,12.30
2018-06-12T08:11:22.389Z,12.63
2018-06-12T08:13:52.214Z,13.10
2018-06-12T08:16:21.564Z,12.00
2018-06-12T08:18:50.246Z,11.87
2018-06-12T08:21:20.359Z,13.43
2018-06-12T08:23:48.721Z,12.10
2018-06-12T08:26:17.509Z,10.70
2018-06-12T08:28:46.012Z,13.13
2018-06-12T08:31:14.791Z,11.53
2018-06-12T08:33:43.158Z,11.43
2018-06-12T08:36:11.601Z,12.23
2018-06-12T08:38:41.239Z,11.70
2018-06-12T08:41:11.144Z,10.70
2018-06-12T08:43:39.605Z,9.70
2018-06-12T08:46:08.282Z,11.40
2018-06-12T08:48:36.743Z,10.67
2018-06-12T08:51:05.146Z,11.17
2018-06-12T08:53:33.569Z,12.10
2018-06-12T08:56:01.956Z,10.87
2018-06-12T08:58:30.953Z,11.33
2018-06-12T09:00:59.384Z,12.67
2018-06-12T09:03:28.389Z,12.50
2018-06-12T09:05:56.788Z,12.30
2018-06-12T09:08:25.240Z,13.40
2018-06-12T09:10:53.649Z,12.70
2018-06-12T09:13:22.515Z,12.40
2018-06-12T09:15:50.908Z,12.50
2018-06-12T09:18:19.332Z,12.70
2018-06-12T09:20:47.757Z,13.40
2018-06-12T09:23:16.214Z,11.70
2018-06-12T09:25:44.860Z,12.37
2018-06-12T09:28:13.307Z,12.20
2018-06-12T09:30:41.748Z,13.10
2018-06-12T09:33:10.173Z,11.47
2018-06-12T09:35:38.588Z,12.43
2018-06-12T09:38:07.020Z,13.90
2018-06-12T09:40:35.417Z,12.60
2018-06-12T09:43:04.147Z,12.40
2018-06-12T09:45:32.579Z,13.07
2018-06-12T09:48:01.268Z,11.90
2018-06-12T09:50:29.672Z,11.63
2018-06-12T09:52:58.694Z,11.77
2018-06-12T09:55:28.221Z,11.27
2018-06-12T09:57:59.889Z,10.77
2018-06-12T10:00:34.759Z,8.80
2018-06-12T10:03:02.913Z,9.07
2018-06-12T10:05:31.780Z,9.60
2018-06-12T10:08:01.275Z,7.90
2018-06-12T10:10:29.926Z,8.77
2018-06-12T10:12:58.611Z,6.30
2018-06-12T10:15:27.945Z,8.37
2018-06-12T10:17:56.740Z,7.63
2018-06-12T10:20:25.721Z,8.20
2018-06-12T10:22:55.577Z,7.67
2018-06-12T10:25:24.249Z,8.20
2018-06-12T10:27:53.728Z,6.50
2018-06-12T10:30:23.064Z,7.70
2018-06-12T10:32:51.965Z,8.47
2018-06-12T10:35:20.981Z,8.10
2018-06-12T10:37:50.873Z,6.53
2018-06-12T10:40:19.394Z,9.37
2018-06-12T12:28:46.074Z,2.90
2018-06-12T12:31:14.692Z,2.50
2018-06-12T12:33:43.197Z,2.70
2018-06-12T12:36:11.739Z,2.13
2018-06-12T12:38:39.885Z,2.57
2018-06-12T12:41:08.423Z,2.10
2018-06-12T12:43:37.277Z,1.97
2018-06-12T12:46:07.018Z,1.97
2018-06-12T12:48:38.267Z,2.30
2018-06-12T12:51:06.968Z,2.33
2018-06-12T13:50:37.724Z,13.93
2018-06-12T13:53:06.696Z,14.17
2018-06-12T13:55:35.408Z,15.17
2018-06-12T13:58:04.400Z,12.73
2018-06-12T14:00:34.355Z,14.13
2018-06-12T14:03:03.483Z,15.37
2018-06-12T14:05:32.680Z,14.50
2018-06-12T14:08:01.141Z,14.70
2018-06-12T14:10:30.229Z,16.10
2018-06-12T14:12:58.676Z,15.30
2018-06-12T14:15:28.144Z,14.00
2018-06-12T14:17:57.551Z,14.33
2018-06-12T14:20:26.536Z,15.50
2018-06-12T14:22:54.996Z,14.30
2018-06-12T14:25:24.524Z,14.33
2018-06-12T14:27:53.180Z,14.13
2018-06-12T14:30:21.623Z,13.60
2018-06-12T14:32:50.286Z,15.30
2018-06-12T14:35:19.996Z,13.70
2018-06-12T14:37:48.826Z,14.20
2018-06-12T14:40:17.262Z,14.20
2018-06-12T14:42:46.405Z,18.17
2018-06-12T14:45:15.207Z,14.87
2018-06-12T14:47:44.346Z,14.80
2018-06-12T14:50:13.175Z,13.07
2018-06-12T14:52:42.349Z,13.07
2018-06-12T14:55:11.892Z,13.00
2018-06-12T14:57:41.264Z,10.87
2018-06-12T15:00:10.029Z,11.23
2018-06-12T15:02:38.525Z,11.70
2018-06-12T15:05:07.556Z,10.70
2018-06-12T15:07:37.607Z,10.47
2018-06-12T15:10:12.289Z,9.63
2018-06-12T15:12:41.390Z,8.60
2018-06-12T15:15:10.908Z,9.50
2018-06-12T15:17:39.364Z,9.40
2018-06-12T15:20:08.787Z,10.60
2018-06-12T15:22:38.339Z,8.57
2018-06-12T15:25:08.092Z,9.60
2018-06-12T15:27:36.952Z,9.63
2018-06-12T15:30:05.539Z,8.50
2018-06-12T15:32:34.373Z,8.30
2018-06-12T15:35:04.130Z,8.00
2018-06-12T15:37:34.888Z,9.87
2018-06-12T15:40:03.357Z,11.97
2018-06-12T15:42:32.565Z,9.77
2018-06-12T15:45:00.977Z,9.70
2018-06-12T15:47:30.751Z,9.10
2018-06-12T15:50:00.664Z,9.80
2018-06-12T15:52:29.341Z,9.10
2018-06-12T15:54:57.772Z,9.57
2018-06-12T15:57:27.884Z,7.93
2018-06-12T15:59:56.889Z,7.43
2018-06-12T16:02:26.306Z,6.90
2018-06-12T16:04:55.951Z,7.60
2018-06-12T16:07:24.385Z,7.97
2018-06-12T16:09:53.085Z,7.80
2018-06-12T16:12:21.508Z,7.63
2018-06-12T16:14:50.172Z,8.60
2018-06-12T16:17:18.613Z,8.10
2018-06-12T16:19:47.925Z,8.37
2018-06-12T16:22:20.216Z,6.40
2018-06-12T16:24:48.608Z,5.53
2018-06-12T16:27:18.606Z,6.23
2018-06-12T16:29:47.707Z,6.10
2018-06-12T16:32:16.136Z,6.07
2018-06-12T16:34:44.584Z,4.90
2018-06-12T16:37:13.020Z,5.60
2018-06-12T16:39:42.062Z,7.77
2018-06-12T16:42:10.611Z,8.00
2018-06-12T16:44:39.763Z,7.37
2018-06-12T16:47:08.404Z,7.07
2018-06-12T16:49:37.897Z,6.27
2018-06-12T16:52:06.989Z,5.70
2018-06-12T16:54:35.651Z,6.97
2018-06-12T16:57:04.771Z,6.00
2018-06-12T16:59:33.504Z,6.73
2018-06-12T17:02:02.777Z,7.10
2018-06-12T17:04:36.718Z,8.47
2018-06-12T17:07:09.116Z,6.23
2018-06-12T17:09:38.012Z,7.00
2018-06-12T17:12:06.964Z,7.83
2018-06-12T17:14:35.948Z,7.43
2018-06-12T17:17:04.393Z,8.70
2018-06-12T17:19:33.717Z,7.47
2018-06-12T17:22:02.710Z,8.27
2018-06-12T17:24:31.356Z,7.30
2018-06-12T17:27:01.169Z,7.90
2018-06-12T17:29:30.197Z,8.03
2018-06-12T17:31:59.469Z,7.67
2018-06-12T17:34:28.874Z,8.00
2018-06-12T17:36:57.324Z,7.60
2018-06-12T17:39:26.666Z,7.70
2018-06-12T17:41:55.749Z,4.93
2018-06-12T17:44:24.185Z,6.63
2018-06-12T17:46:53.554Z,7.70
2018-06-12T17:49:21.998Z,7.23
2018-06-12T17:51:50.421Z,6.87
2018-06-12T17:54:19.189Z,7.67
2018-06-12T17:56:47.932Z,7.60
2018-06-12T17:59:16.097Z,7.93
2018-06-12T18:01:45.138Z,7.47
2018-06-12T18:04:14.361Z,8.80
2018-06-12T18:07:13.591Z,8.67
2018-06-12T18:09:42.292Z,8.73
2018-06-12T18:12:10.752Z,8.57
2018-06-12T18:14:39.208Z,8.20
2018-06-12T18:17:08.324Z,7.70
2018-06-12T18:19:37.312Z,8.07
2018-06-12T18:22:05.843Z,8.30
2018-06-12T18:24:34.588Z,8.27
2018-06-12T18:27:03.429Z,7.70
2018-06-12T18:29:33.252Z,8.43
2018-06-12T18:32:01.906Z,7.63
2018-06-12T18:34:30.931Z,8.10
2018-06-12T18:36:59.360Z,4.90
2018-06-12T18:39:28.340Z,5.90
2018-06-12T18:41:57.415Z,4.37
2018-06-12T18:44:25.877Z,3.40
2018-06-12T18:46:54.301Z,3.03
2018-06-12T18:49:22.950Z,3.00
2018-06-12T18:51:51.816Z,2.67
2018-06-12T18:54:20.319Z,2.50
2018-06-12T18:56:49.668Z,2.70
2018-06-12T18:59:18.120Z,2.37
2018-06-12T19:01:46.539Z,2.57
2018-06-12T19:04:15.406Z,2.67
2018-06-12T19:06:44.782Z,2.57
2018-06-12T19:09:13.958Z,2.60
2018-06-12T19:11:42.973Z,2.27
2018-06-12T19:14:15.047Z,2.83
2018-06-12T19:16:44.522Z,3.57
2018-06-12T19:19:19.674Z,3.23
2018-06-12T19:21:49.158Z,2.93
2018-06-12T19:24:18.192Z,2.57
2018-06-12T19:26:46.910Z,2.70
2018-06-12T19:29:15.360Z,2.67
2018-06-12T19:31:50.460Z,2.20
2018-06-12T19:34:19.724Z,2.70
2018-06-12T19:37:19.481Z,2.70
2018-06-12T19:39:48.680Z,2.00
2018-06-12T19:42:17.126Z,2.40
2018-06-12T21:01:04.536Z,16.40
2018-06-12T21:03:33.703Z,16.77
2018-06-12T21:06:02.553Z,14.53
2018-06-12T21:08:32.581Z,16.40
2018-06-12T21:11:01.017Z,16.33
2018-06-12T21:13:29.475Z,15.73
2018-06-12T21:15:59.735Z,17.57
2018-06-12T21:18:28.424Z,14.90
2018-06-12T21:20:56.839Z,16.37
2018-06-12T21:23:25.684Z,15.33
2018-06-12T21:25:54.575Z,15.50
2018-06-12T21:28:23.720Z,14.10
2018-06-12T21:30:52.720Z,13.00
2018-06-12T21:33:21.584Z,13.50
2018-06-12T21:35:51.368Z,14.27
2018-06-12T21:38:20.488Z,13.57
2018-06-12T21:40:49.224Z,12.30
2018-06-12T21:43:17.697Z,10.77
2018-06-12T21:45:46.392Z,9.17
2018-06-12T21:48:14.832Z,8.33
2018-06-12T21:50:43.298Z,8.60
2018-06-12T21:53:11.760Z,8.37
2018-06-12T21:55:40.324Z,8.10
2018-06-12T21:58:08.989Z,7.47
2018-06-12T22:00:38.718Z,6.20
2018-06-12T22:03:07.889Z,6.73
2018-06-12T22:05:37.657Z,7.00
2018-06-12T22:09:31.804Z,6.67
2018-06-12T22:12:01.239Z,5.60
2018-06-12T22:14:30.516Z,6.40
2018-06-12T22:16:59.372Z,5.30
2018-06-12T22:19:28.949Z,5.07
2018-06-12T22:21:57.438Z,4.33
2018-06-12T22:24:26.958Z,4.60
2018-06-12T22:26:56.349Z,4.97
2018-06-12T22:29:24.793Z,6.00
2018-06-12T22:31:53.210Z,7.40
2018-06-12T22:34:23.431Z,9.73
2018-06-12T22:36:51.839Z,8.20
2018-06-12T22:39:20.876Z,8.50
2018-06-12T22:41:49.514Z,9.33
2018-06-12T22:44:18.340Z,10.20
2018-06-12T22:46:48.183Z,11.33
2018-06-12T22:49:17.203Z,10.00
2018-06-12T22:51:51.101Z,9.53
2018-06-12T22:54:19.745Z,9.70
2018-06-12T22:56:48.793Z,9.67
